createdAt,value
2023-05-28T00:01:07.394Z,10.45
2023-05-28T00:03:33.994Z,9.52
2023-05-28T00:06:00.600Z,7.80
2023-05-28T00:08:27.070Z,8.05
2023-05-28T00:10:53.719Z,11.75
2023-05-28T00:13:21.570Z,8.75
2023-05-28T00:15:48.068Z,6.95
2023-05-28T00:18:14.540Z,9.57
2023-05-28T00:20:41.170Z,8.57
2023-05-28T00:23:07.769Z,8.65
2023-05-28T00:25:34.341Z,12.88
2023-05-28T00:28:00.757Z,10.10
2023-05-28T00:30:28.508Z,9.07
2023-05-28T00:32:54.944Z,9.32
2023-05-28T00:35:21.568Z,12.73
2023-05-28T00:37:48.027Z,8.75
2023-05-28T00:40:14.535Z,7.93
2023-05-28T00:42:41.077Z,9.82
2023-05-28T00:45:08.776Z,9.43
2023-05-28T00:47:36.747Z,10.45
2023-05-28T00:50:03.775Z,8.15
2023-05-28T00:52:30.492Z,11.10
2023-05-28T00:54:57.053Z,7.55
2023-05-28T00:57:24.591Z,7.55
2023-05-28T00:59:51.975Z,12.80
2023-05-28T01:02:18.570Z,9.98
2023-05-28T01:04:46.370Z,8.23
2023-05-28T01:07:13.216Z,9.07
2023-05-28T01:09:40.022Z,10.27
2023-05-28T01:12:09.221Z,11.38
2023-05-28T01:14:36.788Z,9.65
2023-05-28T01:17:03.426Z,9.88
2023-05-28T01:19:30.042Z,10.30
2023-05-28T01:22:04.515Z,9.73
2023-05-28T01:24:33.560Z,9.00
2023-05-28T01:27:00.380Z,9.55
2023-05-28T01:29:26.964Z,10.63
2023-05-28T01:31:53.522Z,9.05
2023-05-28T01:34:20.262Z,6.90
2023-05-28T01:36:55.582Z,9.60
2023-05-28T01:39:25.915Z,8.82
2023-05-28T01:41:55.084Z,9.50
2023-05-28T01:44:21.966Z,10.13
2023-05-28T01:46:49.691Z,7.57
2023-05-28T01:49:16.649Z,11.02
2023-05-28T01:51:43.123Z,8.77
2023-05-28T01:54:09.649Z,12.65
2023-05-28T01:56:36.090Z,11.13
2023-05-28T01:59:03.999Z,7.18
2023-05-28T02:01:31.943Z,8.70
2023-05-28T02:03:58.878Z,7.20
2023-05-28T02:06:26.827Z,13.85
2023-05-28T02:08:53.439Z,7.82
2023-05-28T02:11:19.897Z,7.35
2023-05-28T02:13:46.388Z,9.65
2023-05-28T02:16:14.217Z,8.63
2023-05-28T02:18:40.705Z,7.18
2023-05-28T02:21:07.251Z,8.65
2023-05-28T02:23:33.727Z,6.10
2023-05-28T02:26:00.217Z,7.43
2023-05-28T02:28:26.651Z,7.78
2023-05-28T02:30:53.129Z,9.02
2023-05-28T02:33:22.102Z,5.53
2023-05-28T02:35:48.553Z,10.10
2023-05-28T02:38:15.009Z,9.50
2023-05-28T02:40:41.569Z,8.85
2023-05-28T02:43:08.091Z,7.18
2023-05-28T02:45:34.633Z,9.57
2023-05-28T02:48:01.219Z,7.60
2023-05-28T02:50:29.001Z,8.20
2023-05-28T02:52:56.518Z,8.02
2023-05-28T02:55:23.026Z,6.18
2023-05-28T02:57:49.518Z,7.80
2023-05-28T03:00:16.493Z,7.85
2023-05-28T03:02:43.013Z,11.68
2023-05-28T03:05:09.562Z,9.73
2023-05-28T03:07:37.274Z,9.52
2023-05-28T03:10:04.780Z,9.60
2023-05-28T03:12:31.427Z,13.68
2023-05-28T03:14:57.890Z,10.57
2023-05-28T03:17:24.413Z,10.18
2023-05-28T03:19:50.878Z,11.38
2023-05-28T03:22:17.348Z,10.48
2023-05-28T03:24:45.200Z,10.10
2023-05-28T03:27:11.661Z,12.77
2023-05-28T03:29:38.123Z,8.90
2023-05-28T03:32:05.031Z,12.95
2023-05-28T03:34:32.028Z,10.85
2023-05-28T03:36:58.621Z,10.77
2023-05-28T03:39:25.108Z,9.38
2023-05-28T03:41:52.895Z,10.75
2023-05-28T03:44:19.474Z,9.45
2023-05-28T03:46:46.006Z,10.30
2023-05-28T03:49:12.490Z,10.05
2023-05-28T03:51:38.920Z,9.77
2023-05-28T03:54:05.413Z,9.32
2023-05-28T03:56:31.953Z,8.43
2023-05-28T03:58:59.752Z,8.73
2023-05-28T04:01:26.372Z,9.23
2023-05-28T04:03:54.554Z,10.27
2023-05-28T04:06:21.214Z,10.32
2023-05-28T04:08:48.592Z,8.40
2023-05-28T04:11:15.075Z,8.23
2023-05-28T04:13:41.598Z,10.30
2023-05-28T04:16:09.507Z,7.95
2023-05-28T04:18:36.075Z,9.23
2023-05-28T04:21:02.577Z,8.35
2023-05-28T04:23:28.995Z,8.48
2023-05-28T04:25:55.679Z,9.35
2023-05-28T04:28:22.132Z,10.38
2023-05-28T04:30:48.560Z,9.43
2023-05-28T04:33:19.200Z,8.07
2023-05-28T04:35:46.046Z,9.23
2023-05-28T04:38:12.492Z,8.98
2023-05-28T04:40:39.166Z,9.43
2023-05-28T04:43:05.596Z,11.38
2023-05-28T04:45:32.087Z,10.80
2023-05-28T04:47:58.590Z,10.20
2023-05-28T04:50:26.449Z,11.43
2023-05-28T04:52:52.895Z,9.55
2023-05-28T04:55:19.415Z,10.63
2023-05-28T04:57:45.928Z,12.60
2023-05-28T05:00:13.227Z,11.25
2023-05-28T05:02:39.717Z,9.65
2023-05-28T05:05:06.533Z,10.80
2023-05-28T05:07:34.914Z,10.98
2023-05-28T05:10:01.388Z,12.52
2023-05-28T05:12:27.953Z,13.95
2023-05-28T05:14:54.438Z,11.75
2023-05-28T05:17:20.905Z,13.57
2023-05-28T05:19:47.320Z,13.38
2023-05-28T05:22:13.737Z,14.02
2023-05-28T05:24:41.560Z,10.65
2023-05-28T05:27:08.043Z,12.52
2023-05-28T05:29:34.592Z,12.45
2023-05-28T05:32:01.155Z,10.82
2023-05-28T05:34:27.666Z,10.73
2023-05-28T05:36:54.102Z,12.85
2023-05-28T05:39:20.602Z,11.25
2023-05-28T05:41:48.366Z,11.40
2023-05-28T05:44:14.919Z,9.70
2023-05-28T05:46:41.354Z,12.98
2023-05-28T05:49:07.799Z,12.52
2023-05-28T05:51:34.323Z,13.23
2023-05-28T05:54:00.805Z,14.32
2023-05-28T05:56:27.279Z,13.18
2023-05-28T05:58:55.143Z,13.70
2023-05-28T06:01:22.472Z,13.82
2023-05-28T06:03:48.981Z,12.18
2023-05-28T06:06:15.457Z,13.02
2023-05-28T06:08:42.177Z,13.27
2023-05-28T06:11:08.825Z,11.60
2023-05-28T06:13:35.314Z,13.35
2023-05-28T06:16:03.318Z,12.27
2023-05-28T06:18:30.623Z,13.00
2023-05-28T06:20:57.084Z,13.75
2023-05-28T06:23:23.801Z,11.98
2023-05-28T06:25:50.395Z,14.88
2023-05-28T06:28:17.078Z,13.90
2023-05-28T06:30:44.732Z,12.20
2023-05-28T06:33:12.641Z,12.02
2023-05-28T06:35:39.118Z,13.77
2023-05-28T06:38:05.589Z,13.95
2023-05-28T06:40:31.983Z,11.82
2023-05-28T06:42:58.431Z,10.98
2023-05-28T06:45:24.937Z,13.95
2023-05-28T06:47:51.569Z,12.93
2023-05-28T06:50:19.373Z,12.73
2023-05-28T06:52:45.846Z,11.95
2023-05-28T06:55:12.373Z,12.98
2023-05-28T06:57:38.913Z,11.57
2023-05-28T07:00:06.516Z,12.63
2023-05-28T07:02:33.105Z,10.43
2023-05-28T07:04:59.722Z,10.20
2023-05-28T07:07:27.568Z,10.77
2023-05-28T07:09:54.011Z,12.35
2023-05-28T07:12:20.476Z,13.13
2023-05-28T07:14:46.926Z,11.73
2023-05-28T07:17:13.361Z,13.65
2023-05-28T07:19:39.993Z,14.15
2023-05-28T07:22:06.534Z,15.55
2023-05-28T07:24:34.374Z,13.15
2023-05-28T07:27:00.845Z,13.95
2023-05-28T07:29:27.818Z,12.60
2023-05-28T07:31:54.306Z,15.60
2023-05-28T07:34:20.807Z,12.65
2023-05-28T07:36:47.478Z,12.88
2023-05-28T07:39:13.949Z,13.00
2023-05-28T07:41:41.723Z,13.95
2023-05-28T07:44:08.253Z,12.88
2023-05-28T07:46:35.702Z,14.88
2023-05-28T07:49:02.271Z,15.93
2023-05-28T07:51:28.876Z,16.77
2023-05-28T07:53:55.361Z,15.23
2023-05-28T07:56:22.138Z,17.40
2023-05-28T07:58:49.946Z,13.45
2023-05-28T08:01:16.400Z,14.55
2023-05-28T08:03:43.027Z,15.13
2023-05-28T08:06:09.664Z,16.67
2023-05-28T08:08:36.244Z,15.00
2023-05-28T08:11:02.683Z,16.65
2023-05-28T08:13:29.229Z,14.60
2023-05-28T08:15:59.900Z,18.73
2023-05-28T08:18:26.357Z,18.30
2023-05-28T08:20:52.930Z,16.95
2023-05-28T08:23:19.521Z,15.02
2023-05-28T08:25:46.017Z,16.65
2023-05-28T08:28:12.666Z,14.32
2023-05-28T08:30:39.153Z,16.63
2023-05-28T08:33:07.026Z,18.90
2023-05-28T08:35:33.498Z,21.08
2023-05-28T08:37:59.936Z,15.77
2023-05-28T08:40:28.065Z,16.58
2023-05-28T08:42:54.519Z,22.30
2023-05-28T08:45:21.004Z,18.30
2023-05-28T08:47:49.458Z,17.20
2023-05-28T08:50:18.054Z,18.33
2023-05-28T08:52:46.239Z,18.02
2023-05-28T08:55:12.879Z,16.35
2023-05-28T08:57:39.483Z,17.63
2023-05-28T09:00:06.872Z,18.70
2023-05-28T09:02:33.481Z,15.40
2023-05-28T09:04:59.922Z,11.48
2023-05-28T09:07:27.709Z,14.80
2023-05-28T09:09:54.391Z,13.75
2023-05-28T09:12:22.515Z,13.45
2023-05-28T09:14:51.666Z,20.25
2023-05-28T09:17:18.233Z,18.08
2023-05-28T09:19:51.296Z,15.90
2023-05-28T09:22:20.525Z,19.15
2023-05-28T09:24:50.603Z,13.63
2023-05-28T09:27:17.413Z,17.75
2023-05-28T09:29:43.947Z,17.05
2023-05-28T09:32:10.435Z,16.50
2023-05-28T09:34:44.176Z,17.40
2023-05-28T09:37:10.969Z,15.35
2023-05-28T09:39:37.462Z,13.77
2023-05-28T09:42:05.783Z,16.77
2023-05-28T09:44:33.160Z,13.43
2023-05-28T09:47:01.304Z,13.93
2023-05-28T09:49:30.124Z,13.35
2023-05-28T09:51:58.343Z,14.15
2023-05-28T09:54:28.503Z,13.77
2023-05-28T09:56:58.479Z,11.68
2023-05-28T09:59:28.949Z,14.23
2023-05-28T10:02:01.879Z,14.45
2023-05-28T10:04:34.312Z,15.30
2023-05-28T10:07:02.508Z,14.68
2023-05-28T10:09:32.871Z,11.25
2023-05-28T10:12:05.513Z,13.40
2023-05-28T10:14:33.956Z,14.55
2023-05-28T10:17:00.498Z,13.95
2023-05-28T10:19:28.408Z,13.73
2023-05-28T10:21:55.387Z,13.35
2023-05-28T10:24:22.814Z,15.57
2023-05-28T10:26:49.333Z,15.73
2023-05-28T10:29:15.791Z,12.65
2023-05-28T10:31:43.706Z,10.63
2023-05-28T10:34:16.262Z,11.50
2023-05-28T10:36:50.266Z,12.82
2023-05-28T10:41:43.239Z,14.60
2023-05-28T10:44:09.723Z,11.98
2023-05-28T10:46:37.536Z,14.35
2023-05-28T10:49:10.884Z,11.02
2023-05-28T10:51:44.528Z,14.38
2023-05-28T10:54:22.996Z,12.32
2023-05-28T10:57:08.474Z,9.93
2023-05-28T10:59:38.177Z,12.13
2023-05-28T11:02:05.219Z,14.75
2023-05-28T11:04:35.224Z,15.07
2023-05-28T11:07:01.934Z,15.10
2023-05-28T11:09:28.532Z,15.55
2023-05-28T11:11:59.044Z,11.90
2023-05-28T11:14:25.549Z,12.38
2023-05-28T11:16:53.340Z,10.63
2023-05-28T11:19:21.491Z,14.52
2023-05-28T11:21:53.332Z,14.07
2023-05-28T11:24:20.257Z,16.70
2023-05-28T11:26:46.785Z,14.50
2023-05-28T11:29:14.002Z,10.45
2023-05-28T11:31:41.763Z,12.65
2023-05-28T11:34:09.081Z,10.73
2023-05-28T11:36:41.052Z,13.10
2023-05-28T11:39:09.168Z,15.05
2023-05-28T11:41:35.629Z,11.77
2023-05-28T11:44:02.237Z,8.60
2023-05-28T11:46:29.045Z,12.55
2023-05-28T11:48:55.812Z,12.40
2023-05-28T11:51:22.986Z,11.32
2023-05-28T11:53:49.545Z,12.50
2023-05-28T11:56:17.337Z,7.78
2023-05-28T11:58:45.771Z,13.05
2023-05-28T12:01:14.494Z,12.88
2023-05-28T12:03:41.201Z,12.02
2023-05-28T12:06:07.967Z,10.68
2023-05-28T12:08:34.586Z,10.30
2023-05-28T12:11:03.357Z,11.73
2023-05-28T12:13:33.310Z,15.75
2023-05-28T12:16:10.467Z,10.73
2023-05-28T12:18:41.480Z,13.13
2023-05-28T12:21:11.933Z,13.05
2023-05-28T12:23:38.403Z,10.55
2023-05-28T12:26:10.148Z,10.63
2023-05-28T12:28:37.910Z,12.27
2023-05-28T12:31:04.452Z,15.60
2023-05-28T12:33:31.095Z,13.27
2023-05-28T12:35:57.698Z,17.52
2023-05-28T12:38:24.341Z,15.77
2023-05-28T12:40:50.795Z,16.27
2023-05-28T12:43:17.279Z,16.98
2023-05-28T12:45:45.128Z,16.75
2023-05-28T12:48:11.590Z,17.48
2023-05-28T12:50:38.105Z,17.73
2023-05-28T12:53:04.696Z,13.23
2023-05-28T12:55:31.463Z,14.30
2023-05-28T12:57:58.221Z,18.70
2023-05-28T13:00:24.958Z,17.45
2023-05-28T13:02:52.818Z,19.17
2023-05-28T13:05:19.459Z,17.67
2023-05-28T13:07:45.875Z,13.25
2023-05-28T13:10:15.092Z,15.82
2023-05-28T13:12:41.928Z,19.38
2023-05-28T13:15:08.842Z,16.98
2023-05-28T13:17:35.481Z,18.15
2023-05-28T13:20:03.728Z,21.58
2023-05-28T13:22:30.189Z,14.27
2023-05-28T13:24:56.781Z,17.15
2023-05-28T13:27:23.201Z,18.23
2023-05-28T13:29:49.685Z,17.77
2023-05-28T13:32:16.135Z,21.02
2023-05-28T13:34:42.556Z,19.27
2023-05-28T13:37:10.350Z,12.93
2023-05-28T13:39:36.890Z,20.13
2023-05-28T13:42:03.653Z,18.17
2023-05-28T13:44:30.181Z,22.30
2023-05-28T13:46:56.701Z,20.30
2023-05-28T13:49:23.369Z,16.30
2023-05-28T13:51:50.049Z,14.45
2023-05-28T13:54:18.312Z,16.52
2023-05-28T13:56:44.832Z,16.35
2023-05-28T13:59:11.325Z,17.65
2023-05-28T14:01:38.000Z,21.35
2023-05-28T14:04:04.838Z,16.13
2023-05-28T14:06:31.475Z,18.55
2023-05-28T14:08:57.919Z,15.68
2023-05-28T14:11:26.462Z,17.10
2023-05-28T14:13:55.389Z,18.55
2023-05-28T14:16:21.894Z,17.90
2023-05-28T14:18:48.424Z,21.08
2023-05-28T14:21:14.941Z,20.63
2023-05-28T14:23:41.406Z,18.27
2023-05-28T14:26:07.878Z,15.98
2023-05-28T14:28:35.670Z,17.60
2023-05-28T14:31:02.119Z,22.83
2023-05-28T14:33:28.697Z,22.17
2023-05-28T14:36:07.607Z,22.77
2023-05-28T14:38:40.943Z,20.48
2023-05-28T14:41:07.444Z,19.60
2023-05-28T14:43:33.853Z,21.80
2023-05-28T14:46:01.703Z,25.20
2023-05-28T14:48:28.194Z,20.55
2023-05-28T14:50:54.730Z,21.23
2023-05-28T14:53:21.220Z,16.30
2023-05-28T14:55:47.699Z,19.63
2023-05-28T14:58:14.158Z,21.80
2023-05-28T15:00:42.312Z,21.52
2023-05-28T15:03:10.281Z,22.58
2023-05-28T15:05:36.788Z,17.00
2023-05-28T15:08:03.377Z,21.20
2023-05-28T15:10:29.842Z,17.10
2023-05-28T15:12:56.348Z,17.02
2023-05-28T15:15:22.806Z,17.00
2023-05-28T15:17:49.407Z,17.67
2023-05-28T15:20:17.322Z,25.40
2023-05-28T15:22:44.034Z,19.55
2023-05-28T15:25:10.883Z,23.52
2023-05-28T15:27:37.522Z,20.15
2023-05-28T15:30:04.738Z,15.77
2023-05-28T15:32:32.265Z,16.60
2023-05-28T15:34:58.928Z,20.02
2023-05-28T15:37:26.838Z,21.02
2023-05-28T15:39:53.645Z,20.45
2023-05-28T15:42:20.398Z,20.48
2023-05-28T15:44:47.144Z,19.58
2023-05-28T15:47:13.727Z,17.88
2023-05-28T15:49:40.356Z,17.27
2023-05-28T15:52:06.828Z,18.40
2023-05-28T15:54:34.933Z,23.65
2023-05-28T15:57:01.716Z,19.50
2023-05-28T15:59:28.363Z,21.48
2023-05-28T16:04:25.332Z,16.95
2023-05-28T16:06:52.003Z,17.23
2023-05-28T16:09:18.668Z,20.50
2023-05-28T16:11:50.301Z,14.75
2023-05-28T16:14:19.413Z,20.45
2023-05-28T16:16:46.969Z,18.27
2023-05-28T16:19:13.856Z,14.52
2023-05-28T16:21:40.671Z,13.82
2023-05-28T16:24:07.174Z,15.48
2023-05-28T16:26:34.116Z,19.75
2023-05-28T16:29:02.104Z,15.90
2023-05-28T16:31:29.058Z,13.23
2023-05-28T16:33:55.712Z,16.88
2023-05-28T16:36:23.226Z,13.40
2023-05-28T16:38:50.233Z,15.20
2023-05-28T16:41:16.963Z,14.77
2023-05-28T16:43:43.794Z,16.42
2023-05-28T16:46:12.251Z,13.65
2023-05-28T16:48:39.202Z,16.75
2023-05-28T16:51:05.709Z,15.50
2023-05-28T16:53:32.320Z,13.07
2023-05-28T16:55:58.817Z,12.20
2023-05-28T16:58:25.309Z,12.75
2023-05-28T17:00:51.766Z,16.52
2023-05-28T17:03:19.559Z,17.23
2023-05-28T17:05:46.093Z,14.73
2023-05-28T17:08:12.684Z,16.63
2023-05-28T17:10:39.116Z,13.75
2023-05-28T17:13:05.658Z,13.88
2023-05-28T17:15:32.168Z,11.40
2023-05-28T17:17:58.658Z,13.05
2023-05-28T17:20:26.452Z,15.48
2023-05-28T17:22:52.931Z,15.27
2023-05-28T17:25:19.522Z,14.98
2023-05-28T17:27:45.997Z,12.98
2023-05-28T17:30:12.546Z,13.07
2023-05-28T17:32:38.998Z,13.50
2023-05-28T17:35:05.968Z,10.70
2023-05-28T17:37:33.763Z,17.02
2023-05-28T17:40:00.334Z,15.98
2023-05-28T17:42:28.870Z,10.50
2023-05-28T17:44:55.611Z,14.63
2023-05-28T17:47:22.148Z,12.98
2023-05-28T17:49:48.674Z,12.32
2023-05-28T17:52:15.122Z,10.35
2023-05-28T17:54:42.925Z,10.88
2023-05-28T17:57:09.555Z,13.55
2023-05-28T17:59:36.053Z,13.43
2023-05-28T18:02:02.547Z,11.40
2023-05-28T18:04:29.059Z,13.05
2023-05-28T18:06:56.937Z,10.20
2023-05-28T18:09:23.453Z,11.85
2023-05-28T18:11:51.454Z,18.40
2023-05-28T18:14:17.918Z,15.73
2023-05-28T18:16:44.372Z,10.77
2023-05-28T18:19:11.938Z,17.33
2023-05-28T18:21:39.669Z,16.83
2023-05-28T18:24:07.482Z,10.57
2023-05-28T18:26:34.002Z,11.15
2023-05-28T18:29:01.874Z,13.05
2023-05-28T18:31:28.438Z,11.68
2023-05-28T18:33:55.026Z,15.38
2023-05-28T18:36:21.630Z,15.98
2023-05-28T18:38:48.113Z,15.25
2023-05-28T18:41:14.600Z,12.95
2023-05-28T18:43:41.154Z,15.93
2023-05-28T18:46:10.037Z,17.83
2023-05-28T18:48:36.598Z,12.38
2023-05-28T18:51:03.196Z,13.48
2023-05-28T18:53:29.631Z,16.70
2023-05-28T18:55:56.052Z,11.30
2023-05-28T18:58:22.511Z,14.25
2023-05-28T19:00:49.181Z,13.35
2023-05-28T19:03:17.031Z,15.40
2023-05-28T19:05:43.552Z,16.48
2023-05-28T19:08:10.029Z,14.07
2023-05-28T19:10:36.487Z,14.48
2023-05-28T19:13:02.915Z,15.35
2023-05-28T19:15:29.439Z,16.95
2023-05-28T19:17:55.987Z,16.98
2023-05-28T19:20:23.878Z,14.10
2023-05-28T19:22:50.457Z,16.13
2023-05-28T19:25:17.132Z,16.48
2023-05-28T19:27:43.538Z,11.88
2023-05-28T19:30:10.303Z,12.98
2023-05-28T19:32:36.915Z,14.93
2023-05-28T19:35:03.633Z,15.23
2023-05-28T19:37:31.404Z,15.18
2023-05-28T19:39:57.889Z,13.27
2023-05-28T19:42:24.320Z,16.45
2023-05-28T19:44:50.760Z,12.43
2023-05-28T19:47:17.396Z,9.65
2023-05-28T19:49:43.843Z,11.95
2023-05-28T19:52:10.312Z,14.50
2023-05-28T19:54:38.139Z,15.02
2023-05-28T19:57:05.006Z,14.85
2023-05-28T19:59:31.455Z,16.85
2023-05-28T20:01:57.998Z,17.15
2023-05-28T20:04:24.741Z,14.48
2023-05-28T20:06:51.233Z,15.75
2023-05-28T20:09:17.698Z,11.85
2023-05-28T20:11:45.468Z,13.77
2023-05-28T20:14:11.924Z,14.52
2023-05-28T20:16:38.387Z,13.65
2023-05-28T20:19:04.954Z,11.95
2023-05-28T20:21:31.410Z,12.70
2023-05-28T20:23:57.842Z,12.20
2023-05-28T20:26:24.356Z,11.57
2023-05-28T20:28:52.112Z,12.93
2023-05-28T20:31:18.574Z,13.35
2023-05-28T20:33:45.039Z,13.85
2023-05-28T20:36:14.315Z,14.57
2023-05-28T20:38:41.042Z,13.15
2023-05-28T20:41:07.534Z,16.30
2023-05-28T20:43:33.984Z,13.90
2023-05-28T20:46:01.719Z,14.55
2023-05-28T20:48:28.243Z,11.73
2023-05-28T20:50:54.962Z,16.58
2023-05-28T20:53:21.567Z,14.45
2023-05-28T20:55:48.006Z,13.25
2023-05-28T20:58:22.205Z,11.52
2023-05-28T21:00:49.021Z,13.23
2023-05-28T21:03:16.945Z,12.15
2023-05-28T21:05:43.442Z,14.20
2023-05-28T21:08:10.086Z,12.15
2023-05-28T21:10:37.005Z,14.18
2023-05-28T21:13:03.428Z,13.43
2023-05-28T21:15:29.960Z,12.10
2023-05-28T21:17:56.432Z,15.02
2023-05-28T21:20:24.381Z,12.48
2023-05-28T21:22:50.976Z,11.52
2023-05-28T21:25:17.451Z,14.40
2023-05-28T21:27:47.543Z,11.38
2023-05-28T21:30:14.363Z,15.05
2023-05-28T21:32:40.781Z,14.57
2023-05-28T21:35:08.074Z,14.15
2023-05-28T21:37:35.831Z,16.35
2023-05-28T21:40:02.410Z,14.13
2023-05-28T21:42:28.856Z,14.20
2023-05-28T21:44:55.276Z,16.02
2023-05-28T21:47:21.810Z,16.48
2023-05-28T21:49:48.294Z,14.63
2023-05-28T21:52:14.785Z,13.50
2023-05-28T21:54:42.623Z,11.52
2023-05-28T21:57:09.086Z,15.75
2023-05-28T21:59:35.510Z,12.88
2023-05-28T22:02:02.095Z,14.65
2023-05-28T22:04:28.595Z,12.85
2023-05-28T22:06:55.054Z,14.70
2023-05-28T22:09:21.508Z,13.13
2023-05-28T22:11:49.375Z,13.57
2023-05-28T22:14:20.025Z,12.27
2023-05-28T22:16:46.552Z,13.07
2023-05-28T22:19:13.010Z,12.65
2023-05-28T22:21:41.396Z,12.70
2023-05-28T22:24:07.961Z,14.90
2023-05-28T22:26:34.584Z,12.98
2023-05-28T22:29:02.626Z,12.52
2023-05-28T22:31:29.347Z,15.23
2023-05-28T22:33:55.879Z,13.98
2023-05-28T22:36:22.360Z,14.00
2023-05-28T22:38:49.036Z,13.38
2023-05-28T22:41:15.579Z,13.18
2023-05-28T22:43:44.235Z,10.38
2023-05-28T22:46:12.388Z,15.32
2023-05-28T22:48:38.842Z,15.60
2023-05-28T22:51:05.504Z,13.93
2023-05-28T22:53:31.969Z,13.05
2023-05-28T22:55:58.458Z,12.02
2023-05-28T22:58:25.007Z,15.65
2023-05-28T23:00:51.546Z,13.98
2023-05-28T23:03:19.570Z,19.85
2023-05-28T23:05:46.251Z,18.40
2023-05-28T23:08:12.665Z,12.70
2023-05-28T23:10:39.076Z,22.33
2023-05-28T23:13:05.545Z,14.60
2023-05-28T23:15:32.129Z,15.85
2023-05-28T23:17:58.579Z,15.57
2023-05-28T23:20:26.387Z,15.30
2023-05-28T23:22:52.900Z,13.95
2023-05-28T23:25:19.358Z,11.77
2023-05-28T23:27:45.808Z,16.27
2023-05-28T23:30:12.665Z,10.02
2023-05-28T23:32:39.169Z,13.25
2023-05-28T23:35:06.403Z,12.88
2023-05-28T23:37:34.202Z,14.27
2023-05-28T23:40:00.709Z,12.07
2023-05-28T23:42:29.773Z,13.10
2023-05-28T23:44:57.305Z,12.68
2023-05-28T23:47:24.025Z,14.82
2023-05-28T23:49:50.518Z,15.23
2023-05-28T23:52:17.056Z,11.70
2023-05-28T23:54:44.965Z,13.80
2023-05-28T23:57:11.421Z,17.95
2023-05-28T23:59:38.022Z,12.57
